Time;durP1;ratioP1;P1;durP2;ratioP2;P2;SDS_P1;SDS_P2;PMS_P1;PMS_P2;Temp;Humidity;BMP_temperature;BMP_pressure;BME280_temperature;BME280_humidity;BME280_pressure;Samples;Min_cycle;Max_cycle;Signal;HPM_P1;HPM_P2
2023/03/01 00:00:08;;;;;;;;;;;2.00;73.30;;;;;;5098102;28;19932;-78
2023/03/01 00:02:35;;;;;;;;;;;1.90;73.30;;;;;;5104439;28;19928;-77
2023/03/01 00:05:01;;;;;;;;;;;1.90;73.40;;;;;;5103351;28;20009;-77
2023/03/01 00:07:28;;;;;;;;;;;1.90;73.50;;;;;;5103014;28;19989;-78
2023/03/01 00:09:54;;;;;;;;;;;1.90;73.50;;;;;;5105430;28;19969;-77
2023/03/01 00:12:21;;;;;;;;;;;1.90;73.50;;;;;;5107127;28;19997;-77
2023/03/01 00:14:47;;;;;;;;;;;1.90;73.60;;;;;;5105331;28;19927;-77
2023/03/01 00:17:15;;;;;;;;;;;1.90;73.60;;;;;;5107101;28;19927;-77
2023/03/01 00:19:42;;;;;;;;;;;1.80;73.60;;;;;;5103110;28;20672;-78
2023/03/01 00:22:08;;;;;;;;;;;1.80;73.60;;;;;;5106503;28;19980;-77
2023/03/01 00:24:35;;;;;;;;;;;1.80;73.70;;;;;;5105996;28;19931;-78
2023/03/01 00:27:01;;;;;;;;;;;1.80;73.80;;;;;;5108110;28;20433;-78
2023/03/01 00:29:28;;;;;;;;;;;1.80;73.80;;;;;;5104063;28;19952;-76
2023/03/01 00:31:54;;;;;;;;;;;1.80;73.80;;;;;;5105028;28;19931;-78
2023/03/01 00:34:22;;;;;;;;;;;1.80;73.90;;;;;;5105854;28;19927;-78
2023/03/01 00:36:49;;;;;;;;;;;1.80;74.00;;;;;;5105192;28;20485;-75
2023/03/01 00:39:15;;;;;;;;;;;1.70;73.90;;;;;;5107315;28;19924;-78
2023/03/01 00:41:43;;;;;;;;;;;1.70;74.00;;;;;;5106887;27;19973;-77
2023/03/01 00:44:09;;;;;;;;;;;1.70;74.10;;;;;;5105681;28;20728;-78
2023/03/01 00:46:36;;;;;;;;;;;1.70;74.10;;;;;;5100367;28;19931;-77
2023/03/01 00:49:04;;;;;;;;;;;1.70;74.10;;;;;;5101030;27;19973;-78
2023/03/01 00:51:32;;;;;;;;;;;1.70;74.20;;;;;;5106989;27;19927;-77
2023/03/01 00:53:59;;;;;;;;;;;1.70;74.20;;;;;;5102857;28;20049;-78
2023/03/01 00:56:26;;;;;;;;;;;1.60;74.30;;;;;;5113725;28;19938;-77
2023/03/01 00:58:53;;;;;;;;;;;1.60;74.30;;;;;;5108485;28;19928;-77
2023/03/01 01:01:21;;;;;;;;;;;1.60;74.40;;;;;;5107670;28;19932;-77
2023/03/01 01:03:48;;;;;;;;;;;1.60;74.40;;;;;;5102988;28;20347;-77
2023/03/01 01:06:18;;;;;;;;;;;1.60;74.40;;;;;;5105660;28;20004;-77
2023/03/01 01:08:46;;;;;;;;;;;1.60;74.50;;;;;;5106861;28;20433;-78
2023/03/01 01:11:13;;;;;;;;;;;1.60;74.50;;;;;;5100799;28;20780;-77
2023/03/01 01:13:40;;;;;;;;;;;1.50;74.50;;;;;;5107595;28;20358;-77
2023/03/01 01:16:07;;;;;;;;;;;1.50;74.60;;;;;;5106175;28;19928;-77
2023/03/01 01:18:33;;;;;;;;;;;1.50;74.70;;;;;;5101831;28;19935;-78
2023/03/01 01:21:03;;;;;;;;;;;1.50;74.70;;;;;;5097125;27;19946;-77
2023/03/01 01:23:30;;;;;;;;;;;1.50;74.70;;;;;;5109195;28;19928;-77
2023/03/01 01:25:58;;;;;;;;;;;1.40;74.70;;;;;;5106244;28;20401;-77
2023/03/01 01:28:24;;;;;;;;;;;1.50;74.80;;;;;;5106870;27;19935;-78
2023/03/01 01:30:51;;;;;;;;;;;1.40;74.80;;;;;;5108061;28;19980;-77
2023/03/01 01:33:17;;;;;;;;;;;1.40;74.90;;;;;;5107185;28;20727;-77
2023/03/01 01:35:46;;;;;;;;;;;1.40;74.90;;;;;;5101697;28;19932;-77
2023/03/01 01:38:12;;;;;;;;;;;1.40;74.90;;;;;;5100494;28;19931;-77
2023/03/01 01:40:43;;;;;;;;;;;1.40;75.00;;;;;;5105538;28;19954;-77
2023/03/01 01:43:17;;;;;;;;;;;1.40;75.10;;;;;;5103991;28;19928;-79
2023/03/01 01:45:43;;;;;;;;;;;1.40;75.10;;;;;;5100357;28;19936;-77
2023/03/01 01:48:13;;;;;;;;;;;1.40;75.10;;;;;;5104605;28;19932;-77
2023/03/01 01:50:41;;;;;;;;;;;1.30;75.10;;;;;;5106317;27;20215;-77
2023/03/01 01:53:09;;;;;;;;;;;1.30;75.10;;;;;;5100276;28;19939;-77
2023/03/01 01:55:37;;;;;;;;;;;1.30;75.20;;;;;;5104346;28;20340;-78
2023/03/01 01:58:05;;;;;;;;;;;1.30;75.30;;;;;;5099750;27;20413;-77
2023/03/01 02:00:33;;;;;;;;;;;1.30;75.30;;;;;;5099995;27;19928;-76
2023/03/01 02:03:01;;;;;;;;;;;1.30;75.50;;;;;;5101503;28;20411;-76
2023/03/01 02:05:31;;;;;;;;;;;1.30;75.40;;;;;;5104182;28;19928;-78
2023/03/01 02:07:59;;;;;;;;;;;1.30;75.50;;;;;;5102215;28;19958;-77
2023/03/01 02:10:26;;;;;;;;;;;1.30;75.50;;;;;;5101446;28;19932;-77
2023/03/01 02:12:52;;;;;;;;;;;1.20;75.50;;;;;;5097227;28;19928;-77
2023/03/01 02:15:19;;;;;;;;;;;1.20;75.50;;;;;;5106386;28;20446;-76
2023/03/01 02:17:48;;;;;;;;;;;1.20;75.60;;;;;;5104070;27;19962;-78
2023/03/01 02:20:19;;;;;;;;;;;1.20;75.60;;;;;;5107116;28;19928;-77
2023/03/01 02:22:46;;;;;;;;;;;1.20;75.60;;;;;;5103133;28;20237;-78
2023/03/01 02:25:19;;;;;;;;;;;1.10;75.60;;;;;;5104767;28;19946;-78
2023/03/01 02:27:50;;;;;;;;;;;1.20;75.70;;;;;;5102250;27;19993;-77
2023/03/01 02:30:18;;;;;;;;;;;1.10;75.70;;;;;;5098120;28;20309;-78
2023/03/01 02:32:44;;;;;;;;;;;1.10;75.70;;;;;;5101409;28;19990;-78
2023/03/01 02:35:12;;;;;;;;;;;1.10;75.80;;;;;;5097117;28;19924;-76
2023/03/01 02:37:39;;;;;;;;;;;1.10;75.80;;;;;;5104420;28;19924;-78
2023/03/01 02:40:11;;;;;;;;;;;1.10;75.80;;;;;;5103438;28;19986;-77
2023/03/01 02:42:41;;;;;;;;;;;1.10;75.90;;;;;;5109278;28;20002;-77
2023/03/01 02:45:10;;;;;;;;;;;1.00;75.90;;;;;;5105060;28;19928;-77
2023/03/01 02:47:37;;;;;;;;;;;1.10;75.90;;;;;;5102524;28;19935;-77
2023/03/01 02:50:11;;;;;;;;;;;1.10;76.00;;;;;;5106573;28;19939;-77
2023/03/01 02:52:44;;;;;;;;;;;1.00;76.00;;;;;;5102639;28;19928;-77
2023/03/01 02:55:11;;;;;;;;;;;1.00;76.00;;;;;;5103048;28;19949;-76
2023/03/01 02:57:40;;;;;;;;;;;1.00;76.00;;;;;;5103844;28;19935;-77
2023/03/01 03:00:09;;;;;;;;;;;1.00;76.10;;;;;;5100792;28;19927;-77
2023/03/01 03:02:39;;;;;;;;;;;1.00;76.10;;;;;;5101358;28;19943;-77
2023/03/01 03:05:09;;;;;;;;;;;0.90;76.10;;;;;;5106883;28;19932;-76
2023/03/01 03:07:36;;;;;;;;;;;0.90;76.20;;;;;;5108059;28;20044;-77
2023/03/01 03:10:03;;;;;;;;;;;0.90;76.20;;;;;;5108133;28;19949;-76
2023/03/01 03:12:29;;;;;;;;;;;0.90;76.30;;;;;;5105188;28;19932;-77
2023/03/01 03:14:56;;;;;;;;;;;0.90;76.30;;;;;;5102753;28;20446;-77
2023/03/01 03:17:22;;;;;;;;;;;0.90;76.40;;;;;;5103978;28;19927;-77
2023/03/01 03:19:49;;;;;;;;;;;0.80;76.40;;;;;;5107564;28;19928;-77
2023/03/01 03:22:17;;;;;;;;;;;0.80;76.40;;;;;;5103864;28;19932;-76
2023/03/01 03:24:43;;;;;;;;;;;0.90;76.50;;;;;;5105636;28;19940;-76
2023/03/01 03:27:10;;;;;;;;;;;0.90;76.50;;;;;;5106020;27;19927;-76
2023/03/01 03:29:36;;;;;;;;;;;0.80;76.50;;;;;;5107545;28;19928;-78
2023/03/01 03:32:03;;;;;;;;;;;0.80;76.50;;;;;;5101086;28;19932;-77
2023/03/01 03:34:30;;;;;;;;;;;0.80;76.60;;;;;;5105057;28;19953;-78
2023/03/01 03:36:59;;;;;;;;;;;0.80;76.60;;;;;;5103632;28;19932;-76
2023/03/01 03:39:27;;;;;;;;;;;0.80;76.60;;;;;;5104734;28;19928;-77
2023/03/01 03:41:54;;;;;;;;;;;0.80;76.70;;;;;;5101639;28;21544;-78
2023/03/01 03:44:20;;;;;;;;;;;0.70;76.70;;;;;;5102064;28;20305;-77
2023/03/01 03:46:47;;;;;;;;;;;0.70;76.70;;;;;;5110123;28;19931;-78
2023/03/01 03:49:13;;;;;;;;;;;0.70;76.70;;;;;;5099534;28;20389;-77
2023/03/01 03:51:40;;;;;;;;;;;0.70;76.80;;;;;;5107238;28;19943;-77
2023/03/01 03:54:07;;;;;;;;;;;0.70;76.80;;;;;;5101163;28;20530;-77
2023/03/01 03:56:34;;;;;;;;;;;0.70;76.80;;;;;;5104017;27;19927;-77
2023/03/01 03:59:01;;;;;;;;;;;0.70;76.80;;;;;;5105802;28;19934;-77
2023/03/01 04:01:28;;;;;;;;;;;0.70;76.90;;;;;;5104139;28;19932;-78
2023/03/01 04:03:55;;;;;;;;;;;0.70;76.90;;;;;;5100879;28;19928;-76
2023/03/01 04:06:22;;;;;;;;;;;0.70;76.90;;;;;;5105524;28;20016;-77
2023/03/01 04:08:50;;;;;;;;;;;0.60;76.90;;;;;;5107734;27;19996;-77
2023/03/01 04:11:29;;;;;;;;;;;0.60;77.00;;;;;;5103002;28;19987;-78
2023/03/01 04:13:58;;;;;;;;;;;0.60;77.00;;;;;;5104909;28;19931;-77
2023/03/01 04:16:24;;;;;;;;;;;0.60;77.00;;;;;;5099407;27;19927;-77
2023/03/01 04:18:52;;;;;;;;;;;0.60;77.00;;;;;;5107120;28;19932;-77
2023/03/01 04:21:20;;;;;;;;;;;0.60;77.10;;;;;;5110066;27;19934;-77
2023/03/01 04:23:46;;;;;;;;;;;0.60;77.10;;;;;;5106192;28;19939;-77
2023/03/01 04:26:13;;;;;;;;;;;0.50;77.10;;;;;;5102070;28;20473;-77
2023/03/01 04:28:42;;;;;;;;;;;0.50;77.10;;;;;;5102042;28;19928;-77
2023/03/01 04:31:13;;;;;;;;;;;0.50;77.20;;;;;;5105360;28;19932;-77
2023/03/01 04:33:41;;;;;;;;;;;0.50;77.20;;;;;;5108584;28;19970;-77
2023/03/01 04:36:09;;;;;;;;;;;0.50;77.20;;;;;;5100342;28;19999;-77
2023/03/01 04:38:36;;;;;;;;;;;0.50;77.20;;;;;;5107340;28;19932;-77
2023/03/01 04:41:03;;;;;;;;;;;0.50;77.30;;;;;;5101306;28;20222;-77
2023/03/01 04:43:30;;;;;;;;;;;0.50;77.30;;;;;;5104807;28;20447;-77
2023/03/01 04:46:02;;;;;;;;;;;0.50;77.30;;;;;;5100771;28;19931;-76
2023/03/01 04:48:30;;;;;;;;;;;0.50;77.30;;;;;;5101697;28;20408;-77
2023/03/01 04:50:56;;;;;;;;;;;0.50;77.30;;;;;;5103767;28;19932;-77
2023/03/01 04:53:23;;;;;;;;;;;0.50;77.40;;;;;;5109636;27;20261;-76
2023/03/01 04:55:49;;;;;;;;;;;0.40;77.30;;;;;;5108080;28;19973;-77
2023/03/01 04:58:16;;;;;;;;;;;0.40;77.40;;;;;;5100164;28;19932;-77
2023/03/01 05:00:42;;;;;;;;;;;0.40;77.40;;;;;;5101906;28;20297;-77
2023/03/01 05:03:09;;;;;;;;;;;0.40;78.20;;;;;;5105565;28;19928;-77
2023/03/01 05:05:38;;;;;;;;;;;0.40;77.50;;;;;;5105066;28;20756;-78
2023/03/01 05:08:06;;;;;;;;;;;0.40;77.50;;;;;;5101076;28;19928;-77
2023/03/01 05:10:34;;;;;;;;;;;0.40;77.50;;;;;;5098238;28;19974;-77
2023/03/01 05:13:02;;;;;;;;;;;0.30;77.50;;;;;;5100677;27;19934;-77
2023/03/01 05:15:30;;;;;;;;;;;0.30;77.50;;;;;;5102629;28;19927;-78
2023/03/01 05:17:59;;;;;;;;;;;0.30;77.50;;;;;;5104945;27;19935;-77
2023/03/01 05:20:26;;;;;;;;;;;0.30;77.60;;;;;;5101052;28;20032;-78
2023/03/01 05:22:55;;;;;;;;;;;0.30;77.60;;;;;;5102989;28;20414;-77
2023/03/01 05:25:22;;;;;;;;;;;0.30;77.60;;;;;;5100798;28;19935;-77
2023/03/01 05:27:49;;;;;;;;;;;0.30;77.70;;;;;;5104204;28;19932;-76
2023/03/01 05:30:17;;;;;;;;;;;0.30;77.70;;;;;;5095805;28;19935;-77
2023/03/01 05:32:44;;;;;;;;;;;0.30;77.70;;;;;;5099350;28;19967;-77
2023/03/01 05:35:13;;;;;;;;;;;0.20;77.70;;;;;;5097488;28;19949;-77
2023/03/01 05:37:40;;;;;;;;;;;0.20;77.70;;;;;;5102882;28;19928;-78
2023/03/01 05:40:15;;;;;;;;;;;0.20;77.80;;;;;;5100255;28;19932;-76
2023/03/01 05:42:42;;;;;;;;;;;0.20;77.80;;;;;;5098319;28;20641;-77
2023/03/01 05:45:10;;;;;;;;;;;0.20;77.80;;;;;;5099284;27;20011;-76
2023/03/01 05:47:36;;;;;;;;;;;0.20;77.80;;;;;;5100916;28;20068;-76
2023/03/01 05:50:03;;;;;;;;;;;0.20;77.80;;;;;;5101894;28;19932;-76
2023/03/01 05:52:29;;;;;;;;;;;0.20;77.90;;;;;;5098802;28;20690;-77
2023/03/01 05:54:56;;;;;;;;;;;0.20;77.90;;;;;;5102050;28;19990;-77
2023/03/01 05:57:24;;;;;;;;;;;0.20;78.00;;;;;;5095269;28;19935;-76
2023/03/01 05:59:50;;;;;;;;;;;0.10;78.00;;;;;;5098795;28;19928;-77
2023/03/01 06:02:17;;;;;;;;;;;0.10;78.00;;;;;;5103596;28;19931;-77
2023/03/01 06:04:43;;;;;;;;;;;0.10;78.10;;;;;;5096229;28;19928;-76
2023/03/01 06:07:10;;;;;;;;;;;0.10;78.10;;;;;;5094377;27;19982;-77
2023/03/01 06:09:36;;;;;;;;;;;0.10;78.20;;;;;;5099164;27;20020;-77
2023/03/01 06:12:03;;;;;;;;;;;0.10;78.30;;;;;;5101460;28;19981;-74
2023/03/01 06:14:31;;;;;;;;;;;0.10;78.30;;;;;;5092515;28;19931;-77
2023/03/01 06:16:58;;;;;;;;;;;0.10;78.40;;;;;;5097723;28;19973;-77
2023/03/01 06:19:24;;;;;;;;;;;0.10;78.40;;;;;;5094834;28;19931;-76
2023/03/01 06:21:51;;;;;;;;;;;0.10;78.40;;;;;;5095202;28;20009;-77
2023/03/01 06:24:17;;;;;;;;;;;0.00;78.30;;;;;;5094687;28;19963;-77
2023/03/01 06:26:44;;;;;;;;;;;0.10;78.40;;;;;;5094416;28;19928;-77
2023/03/01 06:29:11;;;;;;;;;;;0.00;78.40;;;;;;5084693;28;19928;-76
2023/03/01 06:31:38;;;;;;;;;;;0.00;78.40;;;;;;5072804;28;20012;-75
2023/03/01 06:34:05;;;;;;;;;;;0.00;78.40;;;;;;5075907;28;19928;-76
2023/03/01 06:36:31;;;;;;;;;;;0.00;78.40;;;;;;5082744;28;20508;-70
2023/03/01 06:38:58;;;;;;;;;;;0.00;78.40;;;;;;5082363;28;19932;-71
2023/03/01 06:41:25;;;;;;;;;;;0.00;78.50;;;;;;5078256;28;19932;-71
2023/03/01 06:43:52;;;;;;;;;;;0.00;78.50;;;;;;5082178;28;19934;-71
2023/03/01 06:46:18;;;;;;;;;;;0.00;78.50;;;;;;5083359;27;20784;-70
2023/03/01 06:48:46;;;;;;;;;;;0.00;78.60;;;;;;5084701;28;19928;-70
2023/03/01 06:51:13;;;;;;;;;;;0.00;78.60;;;;;;5090505;28;19932;-70
2023/03/01 06:53:39;;;;;;;;;;;0.00;78.60;;;;;;5078852;28;20014;-71
2023/03/01 06:56:06;;;;;;;;;;;0.00;78.60;;;;;;5076200;28;19932;-70
2023/03/01 06:58:33;;;;;;;;;;;0.00;78.80;;;;;;5084785;28;19935;-70
2023/03/01 07:00:59;;;;;;;;;;;-0.10;78.70;;;;;;5087154;27;20005;-70
2023/03/01 07:03:26;;;;;;;;;;;0.00;78.80;;;;;;5086521;28;19936;-70
2023/03/01 07:05:54;;;;;;;;;;;-0.10;78.70;;;;;;5085412;28;20001;-70
2023/03/01 07:08:20;;;;;;;;;;;-0.10;78.70;;;;;;5082870;28;19928;-70
2023/03/01 07:10:47;;;;;;;;;;;0.00;78.80;;;;;;5083803;28;19965;-70
2023/03/01 07:13:13;;;;;;;;;;;-0.10;78.80;;;;;;5080614;28;19928;-70
2023/03/01 07:15:40;;;;;;;;;;;0.00;78.80;;;;;;5085876;27;20453;-70
2023/03/01 07:18:07;;;;;;;;;;;-0.10;78.80;;;;;;5082508;28;19932;-70
2023/03/01 07:20:33;;;;;;;;;;;-0.10;78.80;;;;;;5084515;28;19975;-70
2023/03/01 07:23:01;;;;;;;;;;;-0.10;78.80;;;;;;5082326;28;19982;-70
2023/03/01 07:25:28;;;;;;;;;;;-0.10;78.80;;;;;;5084683;28;19977;-70
2023/03/01 07:27:54;;;;;;;;;;;-0.10;78.80;;;;;;5075508;28;19928;-77
2023/03/01 07:30:21;;;;;;;;;;;-0.10;78.80;;;;;;5079818;27;19935;-76
2023/03/01 07:32:48;;;;;;;;;;;-0.10;78.80;;;;;;5085230;28;19927;-76
2023/03/01 07:35:15;;;;;;;;;;;0.00;78.80;;;;;;5080736;28;19935;-76
2023/03/01 07:37:42;;;;;;;;;;;-0.10;78.80;;;;;;5071665;28;20627;-76
2023/03/01 07:40:10;;;;;;;;;;;-0.10;78.70;;;;;;5075856;28;19935;-76
2023/03/01 07:42:37;;;;;;;;;;;0.00;78.80;;;;;;5084069;28;19932;-77
2023/03/01 07:45:04;;;;;;;;;;;-0.10;78.70;;;;;;5086136;28;19935;-77
2023/03/01 07:47:30;;;;;;;;;;;0.00;78.70;;;;;;5084605;28;19932;-77
2023/03/01 07:49:57;;;;;;;;;;;0.00;78.80;;;;;;5080462;28;19936;-77
2023/03/01 07:52:24;;;;;;;;;;;0.00;78.80;;;;;;5081304;28;19931;-77
2023/03/01 07:54:50;;;;;;;;;;;0.00;78.80;;;;;;5086953;28;19932;-78
2023/03/01 07:57:18;;;;;;;;;;;0.00;78.80;;;;;;5081646;28;19932;-78
2023/03/01 07:59:45;;;;;;;;;;;-0.10;78.80;;;;;;5089890;28;19928;-78
2023/03/01 08:02:11;;;;;;;;;;;0.00;78.90;;;;;;5078132;28;20317;-79
2023/03/01 08:04:38;;;;;;;;;;;0.00;78.90;;;;;;5077781;28;19928;-80
2023/03/01 08:07:08;;;;;;;;;;;0.00;78.90;;;;;;5079608;28;19985;-79
2023/03/01 08:09:35;;;;;;;;;;;-0.10;79.00;;;;;;5078622;28;19933;-80
2023/03/01 08:12:02;;;;;;;;;;;0.00;79.10;;;;;;5078440;28;19940;-78
2023/03/01 08:14:30;;;;;;;;;;;0.00;79.00;;;;;;5084587;28;19928;-78
2023/03/01 08:16:56;;;;;;;;;;;0.00;79.00;;;;;;5083525;28;20326;-79
2023/03/01 08:19:23;;;;;;;;;;;0.00;79.00;;;;;;5077634;28;19932;-78
2023/03/01 08:21:49;;;;;;;;;;;0.00;79.00;;;;;;5071539;28;20027;-78
2023/03/01 08:24:16;;;;;;;;;;;0.00;79.00;;;;;;5078055;28;19980;-77
2023/03/01 08:26:42;;;;;;;;;;;0.00;79.00;;;;;;5079191;28;19928;-78
2023/03/01 08:29:09;;;;;;;;;;;0.00;79.00;;;;;;5076416;28;19928;-77
2023/03/01 08:31:37;;;;;;;;;;;0.10;79.10;;;;;;5084014;27;19932;-78
2023/03/01 08:34:05;;;;;;;;;;;0.10;79.00;;;;;;5091960;28;19928;-78
2023/03/01 08:36:32;;;;;;;;;;;0.10;79.00;;;;;;5090839;28;19940;-78
2023/03/01 08:39:00;;;;;;;;;;;0.10;79.10;;;;;;5095063;28;19935;-78
2023/03/01 08:41:27;;;;;;;;;;;0.10;79.00;;;;;;5095614;28;19931;-78
2023/03/01 08:43:58;;;;;;;;;;;0.10;79.00;;;;;;5092222;27;20001;-77
2023/03/01 08:46:25;;;;;;;;;;;0.20;79.00;;;;;;5095170;28;19928;-78
2023/03/01 08:48:52;;;;;;;;;;;0.20;79.00;;;;;;5087468;28;19927;-77
2023/03/01 08:51:19;;;;;;;;;;;0.20;78.90;;;;;;5087316;28;19931;-78
2023/03/01 08:53:46;;;;;;;;;;;0.20;78.90;;;;;;5094305;28;19935;-78
2023/03/01 08:56:14;;;;;;;;;;;0.30;78.90;;;;;;5091820;27;19939;-78
2023/03/01 08:58:40;;;;;;;;;;;0.30;78.80;;;;;;5088795;28;19939;-77
2023/03/01 09:01:07;;;;;;;;;;;0.30;79.50;;;;;;5091653;28;19932;-78
2023/03/01 09:03:34;;;;;;;;;;;0.40;78.70;;;;;;5090429;28;19981;-78
2023/03/01 09:06:03;;;;;;;;;;;0.40;78.50;;;;;;5093116;28;19962;-78
2023/03/01 09:08:29;;;;;;;;;;;0.40;78.40;;;;;;5090344;28;19934;-78
2023/03/01 09:10:56;;;;;;;;;;;0.50;78.30;;;;;;5091755;28;19935;-78
2023/03/01 09:13:24;;;;;;;;;;;0.50;78.20;;;;;;5092287;28;19928;-79
2023/03/01 09:15:51;;;;;;;;;;;0.50;78.10;;;;;;5095072;28;19934;-78
2023/03/01 09:18:18;;;;;;;;;;;0.60;78.10;;;;;;5088418;28;20050;-77
2023/03/01 09:20:44;;;;;;;;;;;0.60;78.10;;;;;;5090018;28;20395;-77
2023/03/01 09:23:12;;;;;;;;;;;0.70;78.10;;;;;;5094792;27;19927;-78
2023/03/01 09:25:39;;;;;;;;;;;0.70;78.00;;;;;;5087280;28;19928;-78
2023/03/01 09:28:05;;;;;;;;;;;0.70;78.00;;;;;;5086325;28;20379;-77
2023/03/01 09:30:32;;;;;;;;;;;0.80;78.00;;;;;;5088698;28;19932;-77
2023/03/01 09:32:58;;;;;;;;;;;0.80;77.90;;;;;;5092334;28;20035;-77
2023/03/01 09:35:26;;;;;;;;;;;0.80;77.90;;;;;;5089111;28;19927;-76
2023/03/01 09:37:52;;;;;;;;;;;0.90;77.80;;;;;;5088577;27;19932;-78
2023/03/01 09:40:21;;;;;;;;;;;0.90;77.60;;;;;;5088698;28;19940;-77
2023/03/01 09:42:52;;;;;;;;;;;1.00;77.50;;;;;;5086147;28;19928;-76
2023/03/01 09:45:24;;;;;;;;;;;1.10;77.30;;;;;;5084229;28;19931;-76
2023/03/01 09:47:51;;;;;;;;;;;1.10;77.00;;;;;;5093798;28;19931;-76
2023/03/01 09:50:19;;;;;;;;;;;1.20;76.70;;;;;;5088485;28;20457;-77
2023/03/01 09:52:48;;;;;;;;;;;1.30;76.60;;;;;;5095361;28;19931;-77
2023/03/01 09:55:17;;;;;;;;;;;1.30;76.30;;;;;;5085054;28;19936;-77
2023/03/01 09:57:48;;;;;;;;;;;1.50;76.20;;;;;;5094010;27;20000;-77
2023/03/01 10:00:23;;;;;;;;;;;1.50;76.00;;;;;;5089972;28;20127;-76
2023/03/01 10:02:52;;;;;;;;;;;1.60;75.80;;;;;;5090817;28;19931;-77
2023/03/01 10:05:36;;;;;;;;;;;1.70;75.70;;;;;;5092468;28;19924;-78
2023/03/01 10:08:07;;;;;;;;;;;1.80;75.50;;;;;;5090608;27;20434;-77
2023/03/01 10:10:37;;;;;;;;;;;1.80;75.30;;;;;;5089878;28;21541;-77
2023/03/01 10:13:09;;;;;;;;;;;1.90;75.10;;;;;;5094681;28;19969;-77
2023/03/01 10:15:39;;;;;;;;;;;2.00;74.90;;;;;;5082567;28;19939;-76
2023/03/01 10:18:10;;;;;;;;;;;2.10;74.70;;;;;;5082955;28;20639;-76
2023/03/01 10:20:43;;;;;;;;;;;2.10;74.50;;;;;;5092423;28;19940;-78
2023/03/01 10:23:10;;;;;;;;;;;2.20;74.50;;;;;;5100181;28;19935;-77
2023/03/01 10:25:44;;;;;;;;;;;2.30;74.40;;;;;;5103575;28;19932;-79
2023/03/01 10:28:16;;;;;;;;;;;2.30;74.30;;;;;;5096945;28;19939;-78
2023/03/01 10:30:43;;;;;;;;;;;2.40;74.30;;;;;;5101365;28;19935;-80
2023/03/01 10:33:15;;;;;;;;;;;2.50;74.00;;;;;;5096780;28;19935;-77
2023/03/01 10:35:41;;;;;;;;;;;2.50;73.90;;;;;;5095114;28;20449;-80
2023/03/01 10:38:09;;;;;;;;;;;2.60;74.00;;;;;;5096761;28;19987;-78
2023/03/01 10:40:37;;;;;;;;;;;2.70;73.70;;;;;;5091344;28;19977;-75
2023/03/01 10:43:05;;;;;;;;;;;2.70;73.60;;;;;;5087968;28;20392;-76
2023/03/01 10:45:34;;;;;;;;;;;2.70;73.40;;;;;;5087364;28;20107;-75
2023/03/01 10:48:05;;;;;;;;;;;2.80;73.20;;;;;;5103870;28;20022;-76
2023/03/01 10:50:32;;;;;;;;;;;2.90;73.00;;;;;;5098221;28;19938;-77
2023/03/01 10:53:00;;;;;;;;;;;3.00;73.00;;;;;;5108752;28;19927;-79
2023/03/01 10:55:29;;;;;;;;;;;3.10;72.80;;;;;;5099724;28;20052;-79
2023/03/01 10:58:07;;;;;;;;;;;3.10;72.60;;;;;;5099944;28;19999;-78
2023/03/01 11:00:45;;;;;;;;;;;3.20;72.40;;;;;;5097000;28;19935;-78
2023/03/01 11:03:13;;;;;;;;;;;3.30;72.90;;;;;;5102550;28;19935;-79
2023/03/01 11:05:51;;;;;;;;;;;3.30;72.20;;;;;;5094809;28;19932;-77
2023/03/01 11:08:29;;;;;;;;;;;3.40;72.20;;;;;;5094848;28;19928;-79
2023/03/01 11:11:04;;;;;;;;;;;3.40;72.10;;;;;;5090819;28;19958;-78
2023/03/01 11:13:30;;;;;;;;;;;3.50;72.10;;;;;;5093392;28;19935;-79
2023/03/01 11:16:02;;;;;;;;;;;3.60;72.10;;;;;;5092042;28;19933;-79
2023/03/01 11:18:30;;;;;;;;;;;3.70;71.90;;;;;;5093756;28;19935;-78
2023/03/01 11:20:57;;;;;;;;;;;3.70;71.70;;;;;;5089750;28;19928;-77
2023/03/01 11:23:24;;;;;;;;;;;3.80;71.50;;;;;;5088360;28;19931;-79
2023/03/01 11:25:55;;;;;;;;;;;3.80;71.30;;;;;;5093350;28;19978;-78
2023/03/01 11:28:22;;;;;;;;;;;3.90;71.00;;;;;;5091350;28;19932;-79
2023/03/01 11:30:53;;;;;;;;;;;4.00;70.80;;;;;;5094380;28;19939;-80
2023/03/01 11:33:25;;;;;;;;;;;4.00;70.80;;;;;;5090888;28;19928;-79
2023/03/01 11:35:56;;;;;;;;;;;4.10;70.40;;;;;;5093495;28;19938;-79
2023/03/01 11:38:23;;;;;;;;;;;4.10;70.40;;;;;;5095438;28;19924;-79
2023/03/01 11:40:53;;;;;;;;;;;4.20;70.80;;;;;;5099798;28;19938;-78
2023/03/01 11:43:23;;;;;;;;;;;4.30;69.80;;;;;;5098017;28;20013;-78
2023/03/01 11:45:59;;;;;;;;;;;4.30;69.90;;;;;;5097210;28;19981;-78
2023/03/01 11:48:38;;;;;;;;;;;4.40;69.80;;;;;;5103425;28;19936;-79
2023/03/01 11:51:09;;;;;;;;;;;4.40;69.80;;;;;;5102024;28;19931;-78
2023/03/01 11:53:47;;;;;;;;;;;4.50;69.70;;;;;;5095051;28;19932;-78
2023/03/01 11:56:19;;;;;;;;;;;4.50;69.50;;;;;;5096314;28;19939;-78
2023/03/01 11:59:02;;;;;;;;;;;4.60;69.50;;;;;;5091689;28;20642;-76
2023/03/01 12:01:33;;;;;;;;;;;4.70;69.20;;;;;;5087155;28;19943;-77
2023/03/01 12:04:17;;;;;;;;;;;4.70;69.30;;;;;;5092451;28;20484;-77
2023/03/01 12:06:51;;;;;;;;;;;4.80;69.30;;;;;;5085719;28;19932;-76
2023/03/01 12:09:32;;;;;;;;;;;4.80;68.80;;;;;;5089362;28;20046;-77
2023/03/01 12:12:09;;;;;;;;;;;4.90;68.90;;;;;;5086655;28;19989;-77
2023/03/01 12:14:44;;;;;;;;;;;4.90;68.20;;;;;;5090615;27;20038;-76
2023/03/01 12:17:17;;;;;;;;;;;5.00;68.40;;;;;;5072588;28;19939;-77
2023/03/01 12:19:53;;;;;;;;;;;5.00;68.50;;;;;;5072209;28;20370;-77
2023/03/01 12:22:29;;;;;;;;;;;5.10;67.40;;;;;;5074373;28;20653;-77
2023/03/01 12:25:12;;;;;;;;;;;5.10;67.40;;;;;;5073172;28;19969;-77
2023/03/01 12:27:48;;;;;;;;;;;5.20;67.80;;;;;;5074906;28;20500;-78
2023/03/01 12:30:23;;;;;;;;;;;5.20;67.50;;;;;;5073455;28;19961;-77
2023/03/01 12:32:55;;;;;;;;;;;5.30;67.40;;;;;;5071632;28;20337;-77
2023/03/01 12:35:32;;;;;;;;;;;5.40;67.30;;;;;;5069932;28;19928;-76
2023/03/01 12:38:07;;;;;;;;;;;5.40;67.90;;;;;;5068634;28;19936;-77
2023/03/01 12:41:03;;;;;;;;;;;5.50;67.50;;;;;;5068686;28;19928;-76
2023/03/01 12:43:37;;;;;;;;;;;5.60;67.30;;;;;;5033042;28;19935;-77
2023/03/01 12:46:11;;;;;;;;;;;5.60;67.20;;;;;;5067294;28;20279;-78
2023/03/01 12:48:41;;;;;;;;;;;5.70;67.20;;;;;;5074797;28;19936;-78
2023/03/01 12:51:10;;;;;;;;;;;5.70;66.80;;;;;;5074751;28;20462;-77
2023/03/01 12:53:40;;;;;;;;;;;5.70;66.80;;;;;;5077387;28;20297;-76
2023/03/01 12:56:08;;;;;;;;;;;5.80;67.30;;;;;;5072752;28;20378;-77
2023/03/01 12:58:38;;;;;;;;;;;5.80;66.50;;;;;;5072967;28;19975;-77
2023/03/01 13:01:14;;;;;;;;;;;5.90;65.80;;;;;;5075013;27;19927;-77
2023/03/01 13:03:49;;;;;;;;;;;5.90;65.80;;;;;;5092020;28;20047;-77
2023/03/01 13:06:19;;;;;;;;;;;6.00;66.00;;;;;;5097430;28;19927;-78
2023/03/01 13:08:50;;;;;;;;;;;6.00;65.50;;;;;;5092529;28;20025;-77
2023/03/01 13:11:18;;;;;;;;;;;6.00;65.80;;;;;;5095407;28;20249;-76
2023/03/01 13:13:46;;;;;;;;;;;6.10;65.60;;;;;;5096295;28;19988;-76
2023/03/01 13:16:23;;;;;;;;;;;6.10;65.60;;;;;;5094359;28;19935;-78
2023/03/01 13:18:50;;;;;;;;;;;6.20;65.50;;;;;;5097968;28;19932;-75
2023/03/01 13:21:29;;;;;;;;;;;6.20;65.50;;;;;;5098103;28;19935;-80
2023/03/01 13:23:57;;;;;;;;;;;6.20;65.30;;;;;;5093746;28;19936;-78
2023/03/01 13:26:24;;;;;;;;;;;6.30;64.60;;;;;;5095914;27;19931;-79
2023/03/01 13:28:55;;;;;;;;;;;6.30;64.70;;;;;;5093468;28;19969;-79
2023/03/01 13:31:40;;;;;;;;;;;6.30;64.60;;;;;;5092344;28;19935;-78
2023/03/01 13:34:27;;;;;;;;;;;6.40;64.80;;;;;;5095755;28;19931;-78
2023/03/01 13:37:08;;;;;;;;;;;6.40;64.50;;;;;;5096260;28;19931;-78
2023/03/01 13:39:41;;;;;;;;;;;6.50;64.20;;;;;;5095734;28;19980;-79
2023/03/01 13:42:22;;;;;;;;;;;6.50;64.60;;;;;;5095959;27;19939;-79
2023/03/01 13:44:49;;;;;;;;;;;6.50;64.40;;;;;;5092587;28;19957;-78
2023/03/01 13:47:17;;;;;;;;;;;6.60;64.40;;;;;;5096488;28;19939;-78
2023/03/01 13:49:46;;;;;;;;;;;6.60;64.60;;;;;;5089500;28;19931;-78
2023/03/01 13:52:30;;;;;;;;;;;6.70;64.30;;;;;;5092727;28;20061;-81
2023/03/01 13:54:59;;;;;;;;;;;6.70;64.10;;;;;;5090620;28;19927;-79
2023/03/01 13:57:29;;;;;;;;;;;6.70;64.10;;;;;;5101832;28;19945;-79
2023/03/01 13:59:56;;;;;;;;;;;6.70;64.10;;;;;;5096690;28;19932;-79
2023/03/01 14:02:22;;;;;;;;;;;6.70;64.10;;;;;;5099812;28;19981;-79
2023/03/01 14:04:56;;;;;;;;;;;6.80;64.30;;;;;;5097978;28;20755;-80
2023/03/01 14:07:24;;;;;;;;;;;6.80;63.90;;;;;;5106167;27;19932;-80
2023/03/01 14:09:53;;;;;;;;;;;6.80;64.30;;;;;;5102430;28;19998;-78
2023/03/01 14:12:27;;;;;;;;;;;6.90;64.90;;;;;;5100825;28;19929;-79
2023/03/01 14:14:57;;;;;;;;;;;6.90;64.50;;;;;;5102753;27;20403;-78
2023/03/01 14:17:31;;;;;;;;;;;6.90;63.50;;;;;;5097878;28;19943;-78
2023/03/01 14:19:59;;;;;;;;;;;6.90;63.50;;;;;;5109968;28;19928;-77
2023/03/01 14:22:28;;;;;;;;;;;7.00;64.00;;;;;;5109450;28;19924;-78
2023/03/01 14:24:56;;;;;;;;;;;7.00;63.60;;;;;;5094130;28;19981;-79
2023/03/01 14:27:24;;;;;;;;;;;7.10;63.70;;;;;;5098162;28;19938;-77
2023/03/01 14:29:58;;;;;;;;;;;7.10;63.70;;;;;;5104028;28;19936;-80
2023/03/01 14:32:26;;;;;;;;;;;7.20;64.10;;;;;;5095187;28;20320;-79
2023/03/01 14:34:53;;;;;;;;;;;7.10;63.30;;;;;;5101214;28;19924;-80
2023/03/01 14:37:21;;;;;;;;;;;7.20;63.40;;;;;;5088354;28;20992;-80